Time;durP1;ratioP1;P1;durP2;ratioP2;P2;SDS_P1;SDS_P2;PMS_P1;PMS_P2;Temp;Humidity;BMP_temperature;BMP_pressure;BME280_temperature;BME280_humidity;BME280_pressure;Samples;Min_cycle;Max_cycle;Signal;HPM_P1;HPM_P2
2022/01/28 00:04:52;;;;;;;21.02;3.60;;;4.80;99.90;;;;;;5126100;28;20043;-81
2022/01/28 00:07:17;;;;;;;19.27;2.88;;;4.90;99.90;;;;;;5117736;27;20431;-81
2022/01/28 00:09:43;;;;;;;17.00;2.55;;;4.90;99.90;;;;;;5121963;27;20122;-82
2022/01/28 00:12:10;;;;;;;18.15;3.22;;;5.70;99.90;;;;;;5128660;27;20034;-81
2022/01/28 00:14:46;;;;;;;20.35;3.20;;;4.80;99.90;;;;;;5110429;27;20076;-82
2022/01/28 00:38:50;;;;;;;14.20;2.50;;;4.60;99.90;;;;;;5123851;27;20066;-81
2022/01/28 00:41:16;;;;;;;15.57;2.47;;;4.80;99.90;;;;;;5129540;27;20050;-81
2022/01/28 00:43:42;;;;;;;19.02;3.00;;;4.70;99.90;;;;;;5130372;27;20587;-82
2022/01/28 00:46:08;;;;;;;14.90;2.75;;;4.80;99.90;;;;;;5127678;27;20042;-82
2022/01/28 00:48:34;;;;;;;16.35;2.60;;;5.00;99.90;;;;;;5121869;27;20031;-82
2022/01/28 00:51:00;;;;;;;13.87;2.40;;;4.70;99.90;;;;;;5137674;27;20045;-82
2022/01/28 00:53:25;;;;;;;25.23;2.83;;;4.70;99.90;;;;;;5124226;27;20395;-81
2022/01/28 00:55:54;;;;;;;16.60;2.60;;;4.70;99.90;;;;;;5133232;27;20450;-82
2022/01/28 00:58:22;;;;;;;14.55;3.10;;;4.80;99.90;;;;;;5104378;27;20046;-82
2022/01/28 01:00:48;;;;;;;15.82;2.33;;;4.80;99.90;;;;;;5125765;27;20125;-82
2022/01/28 01:03:14;;;;;;;18.38;2.75;;;5.00;99.90;;;;;;5126982;27;20121;-82
2022/01/28 01:05:40;;;;;;;17.13;3.38;;;5.00;99.90;;;;;;5126342;27;20042;-81
2022/01/28 01:08:06;;;;;;;20.45;3.40;;;5.00;99.90;;;;;;5107378;27;20034;-82
2022/01/28 01:10:32;;;;;;;;;;;5.10;99.90;;;;;;5115006;27;20066;-82
2022/01/28 01:12:59;;;;;;;11.35;2.38;;;5.10;99.90;;;;;;5131744;27;19919;-82
2022/01/28 01:15:30;;;;;;;16.33;2.17;;;5.20;99.90;;;;;;5124058;27;20719;-81
2022/01/28 01:21:05;;;;;;;17.60;2.60;;;5.20;99.90;;;;;;5042770;28;20044;-82
2022/01/28 01:23:35;;;;;;;13.20;2.95;;;5.10;99.90;;;;;;5111359;27;20122;-82
2022/01/28 01:28:34;;;;;;;14.05;3.00;;;5.10;99.90;;;;;;5126003;27;20053;-81
2022/01/28 01:31:03;;;;;;;15.13;3.05;;;5.10;99.90;;;;;;5131975;27;20035;-80
2022/01/28 01:33:33;;;;;;;18.08;2.33;;;5.10;99.90;;;;;;5126531;27;20095;-80
2022/01/28 01:35:59;;;;;;;19.48;3.67;;;5.20;99.90;;;;;;5107198;27;20038;-81
2022/01/28 01:38:27;;;;;;;17.65;2.92;;;5.20;99.90;;;;;;5092936;27;20042;-81
2022/01/28 01:40:58;;;;;;;14.20;3.03;;;5.30;99.90;;;;;;5124775;27;20433;-81
2022/01/28 01:53:50;;;;;;;18.40;2.90;;;5.10;99.90;;;;;;5079008;27;20047;-81
2022/01/28 01:56:16;;;;;;;35.40;4.25;;;4.90;99.90;;;;;;5127819;27;20278;-81
2022/01/28 01:58:42;;;;;;;27.77;3.75;;;4.90;99.90;;;;;;5107981;28;20462;-81
2022/01/28 02:01:08;;;;;;;20.33;3.90;;;4.90;99.90;;;;;;5127621;27;20031;-82
2022/01/28 02:03:33;;;;;;;20.35;3.53;;;5.00;99.90;;;;;;5120480;27;20437;-82
2022/01/28 02:06:01;;;;;;;27.40;4.15;;;5.10;99.90;;;;;;5121040;27;20057;-82
2022/01/28 02:08:29;;;;;;;24.27;3.65;;;5.40;99.90;;;;;;5117412;27;20105;-82
2022/01/28 02:10:57;;;;;;;23.13;3.15;;;5.10;99.90;;;;;;5119290;27;20043;-82
2022/01/28 02:13:28;;;;;;;24.20;3.40;;;5.10;99.90;;;;;;5121606;27;20446;-80
2022/01/28 02:15:55;;;;;;;24.90;3.35;;;5.10;99.90;;;;;;5124455;27;20047;-80
2022/01/28 02:18:21;;;;;;;17.38;3.10;;;5.20;99.90;;;;;;5107718;27;20035;-80
2022/01/28 02:20:54;;;;;;;18.58;3.35;;;5.10;99.90;;;;;;5096503;27;20091;-80
2022/01/28 02:23:22;;;;;;;19.70;3.33;;;5.20;99.90;;;;;;5118512;27;20510;-80
2022/01/28 02:25:48;;;;;;;26.10;4.32;;;5.10;99.90;;;;;;5104680;27;20070;-80
2022/01/28 02:28:18;;;;;;;19.40;3.30;;;5.20;99.90;;;;;;5119019;27;20038;-82
2022/01/28 02:30:44;;;;;;;26.27;4.38;;;5.20;99.90;;;;;;5124154;27;20039;-81
2022/01/28 02:33:16;;;;;;;25.98;4.03;;;5.20;99.90;;;;;;5116630;27;20088;-81
2022/01/28 02:35:43;;;;;;;21.77;3.67;;;5.30;99.90;;;;;;5119062;27;20039;-81
2022/01/28 02:38:10;;;;;;;24.70;4.05;;;5.30;99.90;;;;;;5112449;27;20095;-81
2022/01/28 02:40:36;;;;;;;23.90;3.78;;;5.30;99.90;;;;;;5102208;28;20047;-82
2022/01/28 02:45:49;;;;;;;22.58;3.72;;;5.50;99.90;;;;;;5123667;27;20111;-82
2022/01/28 02:48:19;;;;;;;24.65;3.88;;;5.40;99.90;;;;;;5121803;28;20101;-82
2022/01/28 02:56:17;;;;;;;29.67;4.63;;;5.40;99.90;;;;;;5116747;27;20122;-82
2022/01/28 02:58:44;;;;;;;26.48;4.20;;;5.40;99.90;;;;;;5107795;28;20063;-82
2022/01/28 03:01:13;;;;;;;21.98;4.25;;;5.40;99.90;;;;;;5123978;28;20044;-82
2022/01/28 03:03:40;;;;;;;29.50;5.15;;;5.40;99.90;;;;;;5123347;28;20107;-82
2022/01/28 03:06:06;;;;;;;27.45;4.05;;;5.40;99.90;;;;;;5117568;28;20046;-82
2022/01/28 03:08:33;;;;;;;22.77;4.13;;;5.40;99.90;;;;;;5104052;28;20038;-82
2022/01/28 03:14:19;;;;;;;23.75;4.32;;;5.50;99.90;;;;;;5124778;28;20395;-82
2022/01/28 03:16:23;;;;;;;16.70;2.85;;;5.70;99.90;;;;;;5109246;28;20534;-82
2022/01/28 03:18:55;;;;;;;;;;;5.50;99.90;;;;;;5103449;28;20044;-82
2022/01/28 03:23:55;;;;;;;22.25;4.03;;;5.40;99.90;;;;;;5116805;28;20165;-82
2022/01/28 03:26:22;;;;;;;14.57;3.58;;;5.40;99.90;;;;;;5117175;28;20125;-82
2022/01/28 03:28:48;;;;;;;18.38;3.53;;;5.40;99.90;;;;;;5115503;28;20044;-82
2022/01/28 03:31:14;;;;;;;18.73;3.30;;;5.60;99.90;;;;;;5100888;28;20475;-82
2022/01/28 03:33:39;;;;;;;19.90;3.33;;;5.30;99.90;;;;;;5117918;28;20297;-82
2022/01/28 03:36:08;;;;;;;18.33;3.07;;;5.50;99.90;;;;;;5098459;28;20285;-82
2022/01/28 03:38:35;;;;;;;16.92;2.40;;;5.30;99.90;;;;;;5114696;28;20063;-81
2022/01/28 03:41:01;;;;;;;17.85;3.10;;;5.30;99.90;;;;;;5118744;27;20047;-82
2022/01/28 03:43:27;;;;;;;24.83;3.55;;;5.30;99.90;;;;;;5126200;27;20046;-80
2022/01/28 03:45:52;;;;;;;18.10;2.90;;;6.00;99.90;;;;;;5121234;27;20398;-80
2022/01/28 03:48:18;;;;;;;16.38;3.15;;;5.30;99.90;;;;;;5113676;27;20044;-80
2022/01/28 03:50:44;;;;;;;16.58;3.00;;;5.30;99.90;;;;;;5126787;27;20070;-80
2022/01/28 03:53:10;;;;;;;21.40;2.60;;;5.30;99.90;;;;;;5088644;27;20039;-81
2022/01/28 03:55:36;;;;;;;18.23;3.00;;;5.40;99.90;;;;;;5106511;27;20457;-80
2022/01/28 03:58:04;;;;;;;18.17;3.30;;;5.40;99.90;;;;;;5124867;27;20381;-82
2022/01/28 04:00:31;;;;;;;22.30;3.15;;;5.30;99.90;;;;;;5088253;28;20050;-82
2022/01/28 04:13:48;;;;;;;20.33;3.40;;;5.10;99.90;;;;;;5113772;27;20519;-82
2022/01/28 04:16:31;;;;;;;21.00;2.97;;;5.00;99.90;;;;;;5109463;27;20035;-82
2022/01/28 04:18:57;;;;;;;17.23;2.58;;;5.00;99.90;;;;;;5122207;27;20079;-82
2022/01/28 04:21:23;;;;;;;16.92;2.72;;;5.00;99.90;;;;;;5121682;27;20073;-82
2022/01/28 04:23:49;;;;;;;16.70;3.55;;;4.90;99.90;;;;;;5121314;27;20035;-82
2022/01/28 04:26:14;;;;;;;19.87;2.87;;;4.90;99.90;;;;;;5130407;27;20087;-82
2022/01/28 04:28:40;;;;;;;20.07;3.33;;;5.40;99.90;;;;;;5128757;27;20293;-82
2022/01/28 04:31:06;;;;;;;17.88;3.17;;;4.80;99.90;;;;;;5125800;27;20036;-82
2022/01/28 04:33:32;;;;;;;23.13;3.58;;;4.80;99.90;;;;;;5108259;27;20455;-82
2022/01/28 04:35:59;;;;;;;16.88;3.17;;;4.80;99.90;;;;;;5122832;27;20047;-82
2022/01/28 04:41:03;;;;;;;20.73;3.23;;;4.80;99.90;;;;;;5119649;27;20039;-82
2022/01/28 04:43:56;;;;;;;22.45;2.72;;;4.70;99.90;;;;;;5111925;27;20621;-82
2022/01/28 04:46:31;;;;;;;25.25;3.15;;;4.70;99.90;;;;;;5106324;27;20042;-82
2022/01/28 04:49:07;;;;;;;19.98;3.50;;;4.80;99.90;;;;;;5142687;27;20062;-82
2022/01/28 05:00:16;;;;;;;23.73;3.72;;;5.60;99.90;;;;;;5087004;27;20424;-82
2022/01/28 05:28:40;;;;;;;16.50;3.03;;;5.70;99.90;;;;;;5118364;27;20043;-83
2022/01/28 05:31:06;;;;;;;19.27;3.33;;;4.70;99.90;;;;;;5123440;27;20123;-82
2022/01/28 05:33:32;;;;;;;17.85;3.15;;;5.30;99.90;;;;;;5121095;27;20179;-85
2022/01/28 05:35:58;;;;;;;18.13;3.47;;;4.60;99.90;;;;;;5123384;27;20036;-85
2022/01/28 05:38:23;;;;;;;26.10;3.17;;;4.60;99.90;;;;;;5123756;27;20040;-85
2022/01/28 05:40:49;;;;;;;19.52;2.97;;;4.60;99.90;;;;;;5121874;27;20139;-84
2022/01/28 05:43:15;;;;;;;16.67;3.08;;;4.60;99.90;;;;;;5125060;27;20040;-85
2022/01/28 05:45:40;;;;;;;21.23;3.60;;;4.60;99.90;;;;;;5128795;27;20035;-84
2022/01/28 05:48:06;;;;;;;21.05;3.15;;;4.60;99.90;;;;;;5088734;28;20281;-87
2022/01/28 05:50:32;;;;;;;19.25;3.55;;;4.70;99.90;;;;;;5128806;27;20379;-87
2022/01/28 05:53:00;;;;;;;19.00;3.43;;;4.80;99.90;;;;;;5127763;27;20043;-87
2022/01/28 05:55:26;;;;;;;21.42;3.00;;;4.80;99.90;;;;;;5121897;27;20276;-83
2022/01/28 05:57:51;;;;;;;16.58;2.75;;;4.70;99.90;;;;;;5123942;27;20093;-83
2022/01/28 06:00:17;;;;;;;19.35;3.10;;;4.80;99.90;;;;;;5118015;27;20035;-84
2022/01/28 06:02:45;;;;;;;16.23;2.90;;;4.80;99.90;;;;;;5126642;27;20118;-83
2022/01/28 06:05:11;;;;;;;22.75;3.05;;;4.80;99.90;;;;;;5123911;27;20042;-84
2022/01/28 06:07:41;;;;;;;20.55;3.30;;;4.90;99.90;;;;;;5126652;27;20035;-84
2022/01/28 06:10:12;;;;;;;16.42;3.33;;;4.90;99.90;;;;;;5107802;27;20491;-84
2022/01/28 06:12:41;;;;;;;22.83;3.42;;;4.90;99.90;;;;;;5120308;27;20035;-84
2022/01/28 06:15:08;;;;;;;16.20;2.83;;;4.90;99.90;;;;;;5122757;27;20066;-84
2022/01/28 06:17:34;;;;;;;16.83;3.10;;;4.90;99.90;;;;;;5119858;27;20530;-84
2022/01/28 06:20:00;;;;;;;16.13;2.93;;;5.00;99.90;;;;;;5124340;27;20043;-84
2022/01/28 06:22:26;;;;;;;19.67;3.38;;;5.70;99.90;;;;;;5116252;27;20286;-84
2022/01/28 06:24:52;;;;;;;18.23;3.10;;;5.80;99.90;;;;;;5104661;27;20039;-84
2022/01/28 06:27:17;;;;;;;18.50;3.00;;;5.00;99.90;;;;;;5122217;27;20173;-84
2022/01/28 06:29:43;;;;;;;23.83;3.07;;;5.00;99.90;;;;;;5116604;27;20043;-84
2022/01/28 06:32:11;;;;;;;29.38;3.05;;;5.00;99.90;;;;;;5104785;27;20284;-84
2022/01/28 06:34:38;;;;;;;13.15;2.70;;;5.10;99.90;;;;;;5125247;27;20046;-84
2022/01/28 06:37:05;;;;;;;17.17;3.25;;;5.10;99.90;;;;;;5121310;27;20047;-84
2022/01/28 06:39:32;;;;;;;20.50;3.58;;;5.10;99.90;;;;;;5123394;27;20055;-84
2022/01/28 06:42:01;;;;;;;26.98;4.43;;;5.00;99.90;;;;;;5104884;27;20486;-83
2022/01/28 06:44:29;;;;;;;20.30;3.50;;;5.00;99.90;;;;;;5085640;28;20032;-84
2022/01/28 06:46:55;;;;;;;18.45;3.97;;;5.00;99.90;;;;;;5122624;27;20387;-84
2022/01/28 06:49:20;;;;;;;22.35;3.13;;;4.90;99.90;;;;;;5121918;27;20030;-83
2022/01/28 06:51:46;;;;;;;22.63;3.33;;;4.90;99.90;;;;;;5121861;27;20043;-84
2022/01/28 06:54:12;;;;;;;17.63;3.03;;;4.90;99.90;;;;;;5104438;28;20288;-84
2022/01/28 06:56:37;;;;;;;22.13;3.30;;;4.80;99.90;;;;;;5123678;27;20035;-84
2022/01/28 06:59:06;;;;;;;20.48;3.30;;;4.80;99.90;;;;;;5116919;27;20031;-83
2022/01/28 07:01:32;;;;;;;17.42;3.20;;;5.80;99.90;;;;;;5120377;28;20091;-81
2022/01/28 07:04:00;;;;;;;15.85;3.10;;;4.80;99.90;;;;;;5123262;28;20051;-81
2022/01/28 07:06:26;;;;;;;20.15;3.40;;;4.70;99.90;;;;;;5118061;28;20040;-81
2022/01/28 07:08:51;;;;;;;29.05;3.95;;;5.20;99.90;;;;;;5120540;28;20054;-80
2022/01/28 07:11:17;;;;;;;24.20;3.43;;;4.70;99.90;;;;;;5121198;28;20500;-81
2022/01/28 07:13:43;;;;;;;21.83;3.85;;;4.70;99.90;;;;;;5121272;28;20300;-81
2022/01/28 07:16:09;;;;;;;25.98;4.32;;;4.60;99.90;;;;;;5122709;27;20769;-81
2022/01/28 07:18:35;;;;;;;21.08;3.85;;;4.60;99.90;;;;;;5107956;27;20114;-81
2022/01/28 07:21:13;;;;;;;22.30;3.30;;;4.50;99.90;;;;;;5125570;27;20501;-76
2022/01/28 07:23:39;;;;;;;27.60;3.53;;;4.50;99.90;;;;;;5121807;27;20269;-75
2022/01/28 07:26:05;;;;;;;22.83;3.70;;;4.50;99.90;;;;;;5120340;27;20046;-76
2022/01/28 07:28:32;;;;;;;22.88;3.88;;;5.50;99.90;;;;;;5114894;27;20438;-75
2022/01/28 07:30:57;;;;;;;22.60;3.85;;;4.50;99.90;;;;;;5111473;28;20047;-76
2022/01/28 07:33:23;;;;;;;24.98;3.45;;;4.70;99.90;;;;;;5123376;27;20031;-76
2022/01/28 07:35:49;;;;;;;23.92;3.50;;;4.40;99.90;;;;;;5127885;27;20051;-76
2022/01/28 07:38:14;;;;;;;19.05;3.30;;;4.40;99.90;;;;;;5123955;27;20059;-76
2022/01/28 07:40:40;;;;;;;16.30;3.33;;;4.60;99.90;;;;;;5127478;27;20047;-76
2022/01/28 07:43:06;;;;;;;19.17;3.55;;;4.30;99.90;;;;;;5117421;27;20032;-76
2022/01/28 07:45:32;;;;;;;21.40;2.90;;;4.30;99.90;;;;;;5119273;27;20360;-76
2022/01/28 07:47:57;;;;;;;22.52;3.55;;;3.60;99.90;;;;;;5113082;27;20495;-76
2022/01/28 07:50:23;;;;;;;24.63;2.85;;;5.30;99.90;;;;;;5107121;27;20066;-74
2022/01/28 07:52:49;;;;;;;19.10;3.83;;;4.00;99.90;;;;;;5111532;28;20066;-74
2022/01/28 07:55:15;;;;;;;25.92;3.70;;;4.00;99.90;;;;;;5130010;27;20479;-74
2022/01/28 07:57:41;;;;;;;27.20;4.25;;;4.80;99.90;;;;;;5121472;27;20059;-73
2022/01/28 08:00:09;;;;;;;26.73;3.92;;;5.60;99.90;;;;;;5121556;27;20028;-74
2022/01/28 08:02:35;;;;;;;22.85;3.42;;;3.60;99.90;;;;;;5116707;27;20499;-73
2022/01/28 08:05:01;;;;;;;27.42;4.15;;;4.10;99.90;;;;;;5113368;27;20039;-73
2022/01/28 08:07:27;;;;;;;23.33;3.42;;;4.80;99.90;;;;;;5118263;27;20062;-74
2022/01/28 08:09:53;;;;;;;22.67;3.88;;;4.20;99.90;;;;;;5118872;27;20100;-75
2022/01/28 08:12:19;;;;;;;21.25;3.97;;;4.20;99.90;;;;;;5104460;27;20357;-75
2022/01/28 08:14:45;;;;;;;16.65;3.30;;;4.60;99.90;;;;;;5103312;27;20546;-74
2022/01/28 08:17:11;;;;;;;24.70;3.53;;;5.20;99.90;;;;;;5115474;27;20357;-75
2022/01/28 08:19:37;;;;;;;15.63;3.42;;;4.30;99.90;;;;;;5118278;27;20039;-74
2022/01/28 08:22:04;;;;;;;25.73;3.55;;;5.60;99.90;;;;;;5127439;27;20034;-75
2022/01/28 08:24:30;;;;;;;16.15;3.25;;;4.50;99.90;;;;;;5121211;27;20040;-76
2022/01/28 08:26:56;;;;;;;20.08;3.20;;;4.60;99.90;;;;;;5116716;27;20043;-75
2022/01/28 08:29:21;;;;;;;21.77;3.50;;;4.60;99.90;;;;;;5131595;27;20476;-75
2022/01/28 08:31:47;;;;;;;19.40;2.70;;;5.90;99.90;;;;;;5097292;28;20116;-75
2022/01/28 08:34:13;;;;;;;16.80;3.00;;;5.40;99.90;;;;;;5114262;27;20031;-76
2022/01/28 08:36:39;;;;;;;24.10;3.88;;;4.70;99.90;;;;;;5121005;27;20043;-76
2022/01/28 08:39:06;;;;;;;20.20;3.03;;;5.10;99.90;;;;;;5128653;27;20126;-76
2022/01/28 08:41:34;;;;;;;18.77;3.65;;;4.90;99.90;;;;;;5118331;27;20034;-73
2022/01/28 08:44:01;;;;;;;18.38;3.42;;;6.10;99.90;;;;;;5135173;27;20462;-75
2022/01/28 08:46:26;;;;;;;16.42;2.97;;;5.70;99.90;;;;;;5122335;27;20376;-75
2022/01/28 08:48:52;;;;;;;19.30;3.37;;;6.20;99.90;;;;;;5117479;27;20068;-75
2022/01/28 08:51:18;;;;;;;17.30;3.10;;;7.10;99.90;;;;;;5122398;27;20292;-74
2022/01/28 08:53:43;;;;;;;16.90;3.20;;;7.30;99.90;;;;;;5102788;27;20370;-74
2022/01/28 08:56:09;;;;;;;21.88;3.72;;;7.70;99.90;;;;;;5114222;27;20493;-74
2022/01/28 08:58:36;;;;;;;19.83;4.43;;;8.10;99.90;;;;;;5125417;27;20038;-74
2022/01/28 09:01:02;;;;;;;;;;;8.40;99.90;;;;;;5110485;27;20113;-75
2022/01/28 09:03:28;;;;;;;20.33;3.28;;;8.50;99.90;;;;;;5123282;27;19915;-75
2022/01/28 09:05:54;;;;;;;17.95;3.75;;;8.70;99.90;;;;;;5128255;27;20481;-76
2022/01/28 09:08:19;;;;;;;19.45;3.60;;;8.90;99.90;;;;;;5101616;27;20127;-75
2022/01/28 09:10:56;;;;;;;15.27;3.00;;;9.20;99.90;;;;;;5119568;27;20455;-75
2022/01/28 09:13:25;;;;;;;20.98;3.72;;;9.50;99.90;;;;;;5111334;27;20042;-75
2022/01/28 09:15:54;;;;;;;19.75;4.28;;;9.70;99.90;;;;;;5112755;27;20050;-74
2022/01/28 09:18:21;;;;;;;24.20;3.65;;;9.80;99.90;;;;;;5125081;27;20099;-75
2022/01/28 09:20:47;;;;;;;23.92;3.92;;;9.90;99.90;;;;;;5114880;27;20042;-75
2022/01/28 09:23:13;;;;;;;;;;;10.10;99.90;;;;;;5115602;27;20483;-75
2022/01/28 09:25:39;;;;;;;20.52;3.45;;;10.30;99.90;;;;;;5127329;27;19923;-75
2022/01/28 09:28:05;;;;;;;19.85;3.70;;;10.70;99.90;;;;;;5126633;27;20117;-75
2022/01/28 09:30:32;;;;;;;19.60;3.58;;;10.70;99.90;;;;;;5104879;27;20042;-75
2022/01/28 09:32:58;;;;;;;20.70;3.55;;;10.50;99.90;;;;;;5122672;27;20046;-75
2022/01/28 09:35:25;;;;;;;16.48;3.03;;;10.30;99.90;;;;;;5128353;27;20117;-75
2022/01/28 09:37:52;;;;;;;18.55;3.08;;;9.80;99.90;;;;;;5125697;27;20045;-75
2022/01/28 09:40:19;;;;;;;27.48;3.25;;;9.50;99.90;;;;;;5103467;27;20051;-76
2022/01/28 09:42:46;;;;;;;22.05;3.20;;;9.50;99.90;;;;;;5107461;27;20047;-75
2022/01/28 09:45:21;;;;;;;21.17;3.40;;;9.70;99.90;;;;;;5118693;27;20493;-75
2022/01/28 09:47:47;;;;;;;17.40;3.22;;;9.80;99.90;;;;;;5123235;27;20043;-75
2022/01/28 09:50:14;;;;;;;17.25;3.20;;;9.50;99.90;;;;;;5117042;27;20031;-75
2022/01/28 09:52:40;;;;;;;20.55;3.80;;;9.10;99.90;;;;;;5126175;27;20042;-75
2022/01/28 09:55:06;;;;;;;21.42;3.45;;;9.00;99.90;;;;;;5133846;27;20517;-75
2022/01/28 09:57:33;;;;;;;23.38;3.65;;;8.80;99.90;;;;;;5116033;27;20038;-75
2022/01/28 09:59:58;;;;;;;;;;;8.60;99.90;;;;;;5131634;27;20041;-75
2022/01/28 10:02:50;;;;;;;23.27;3.30;;;8.50;99.90;;;;;;5105789;27;20286;-75
2022/01/28 10:05:27;;;;;;;19.33;3.30;;;8.60;99.90;;;;;;5124436;27;20115;-75
2022/01/28 10:08:06;;;;;;;23.85;4.38;;;8.50;99.90;;;;;;5120260;27;20047;-76
2022/01/28 10:10:42;;;;;;;17.15;3.33;;;8.50;99.90;;;;;;5095318;27;20030;-76
2022/01/28 10:13:15;;;;;;;27.73;3.67;;;8.50;99.90;;;;;;5141173;27;20039;-75
2022/01/28 10:16:01;;;;;;;23.88;3.38;;;8.30;99.90;;;;;;5126751;27;20070;-75
2022/01/28 10:18:50;;;;;;;17.55;3.78;;;8.20;99.90;;;;;;5134139;27;20039;-75
2022/01/28 10:21:36;;;;;;;21.55;3.72;;;8.30;99.90;;;;;;5103793;27;20035;-75
2022/01/28 10:24:05;;;;;;;25.13;3.80;;;8.20;99.90;;;;;;5136212;27;20039;-76
2022/01/28 10:26:36;;;;;;;20.05;3.53;;;8.00;99.90;;;;;;5141843;27;20495;-77
2022/01/28 10:29:07;;;;;;;14.48;2.60;;;8.00;99.90;;;;;;5139862;27;20118;-74
2022/01/28 10:31:47;;;;;;;21.30;3.45;;;8.00;99.90;;;;;;5117198;27;20138;-74
2022/01/28 10:34:15;;;;;;;15.98;3.13;;;7.80;99.90;;;;;;5149250;27;20039;-75
2022/01/28 10:36:40;;;;;;;20.60;3.17;;;7.80;99.90;;;;;;5120692;27;20043;-75
2022/01/28 10:39:19;;;;;;;21.42;3.65;;;8.10;99.90;;;;;;5126746;27;20033;-77
2022/01/28 10:41:59;;;;;;;21.70;3.33;;;7.90;99.90;;;;;;5143061;27;20065;-77
2022/01/28 10:44:27;;;;;;;21.10;3.20;;;8.00;99.90;;;;;;5120653;27;20076;-77
2022/01/28 10:47:00;;;;;;;17.23;3.50;;;8.20;99.90;;;;;;5140134;27;20096;-77
2022/01/28 10:49:34;;;;;;;22.60;3.17;;;8.40;99.90;;;;;;5148030;27;20058;-77
2022/01/28 10:52:13;;;;;;;22.73;3.88;;;8.70;99.90;;;;;;5116600;27;20099;-76
2022/01/28 10:54:41;;;;;;;20.45;3.03;;;8.90;99.90;;;;;;5125082;27;20402;-76
2022/01/28 10:57:10;;;;;;;21.40;3.30;;;8.90;99.90;;;;;;5101523;27;20043;-76
2022/01/28 10:59:43;;;;;;;23.15;3.47;;;9.10;99.90;;;;;;5141572;27;20035;-76
2022/01/28 11:02:09;;;;;;;16.55;3.30;;;9.10;99.90;;;;;;5125377;27;20035;-75
2022/01/28 11:04:35;;;;;;;20.88;3.03;;;9.00;99.90;;;;;;5131333;27;20457;-75
2022/01/28 11:07:02;;;;;;;18.90;3.03;;;9.10;99.90;;;;;;5119525;27;20057;-75
2022/01/28 11:09:30;;;;;;;16.83;2.70;;;9.20;99.90;;;;;;5103642;27;20043;-74
2022/01/28 11:11:56;;;;;;;21.73;3.22;;;9.30;99.90;;;;;;5118165;28;20039;-75
2022/01/28 11:14:23;;;;;;;15.80;2.80;;;9.80;99.90;;;;;;5134507;27;20043;-75
2022/01/28 11:16:49;;;;;;;12.98;2.88;;;10.30;99.90;;;;;;5144660;27;20066;-75
2022/01/28 11:19:18;;;;;;;23.67;3.67;;;10.50;99.90;;;;;;5103043;27;20504;-75
2022/01/28 11:21:47;;;;;;;19.23;3.17;;;10.60;99.90;;;;;;5099786;27;20050;-75
2022/01/28 11:24:39;;;;;;;19.60;3.38;;;10.40;99.90;;;;;;5119559;27;20046;-75
2022/01/28 11:27:17;;;;;;;19.00;3.53;;;10.10;99.90;;;;;;5101314;27;20039;-76
2022/01/28 11:29:43;;;;;;;18.85;2.95;;;9.90;99.90;;;;;;5136878;27;20035;-75
2022/01/28 11:32:15;;;;;;;17.33;2.78;;;9.60;99.90;;;;;;5124261;27;20031;-75
2022/01/28 11:34:58;;;;;;;19.30;3.55;;;8.90;99.90;;;;;;5140367;27;20023;-74
2022/01/28 11:37:29;;;;;;;18.35;3.03;;;9.10;99.90;;;;;;5141291;27;20047;-75
2022/01/28 11:40:08;;;;;;;17.73;2.70;;;9.10;99.90;;;;;;5139031;27;20477;-75
2022/01/28 11:42:34;;;;;;;17.77;2.95;;;9.20;99.90;;;;;;5136097;27;20107;-75
2022/01/28 11:45:03;;;;;;;16.40;3.10;;;8.90;99.90;;;;;;5140645;27;20042;-74
2022/01/28 11:47:53;;;;;;;20.92;3.38;;;9.50;99.90;;;;;;5138974;27;20114;-75
2022/01/28 11:50:22;;;;;;;14.40;2.58;;;10.40;99.90;;;;;;5120115;27;20118;-75
2022/01/28 11:52:53;;;;;;;15.27;2.50;;;10.80;99.90;;;;;;5138895;27;20038;-75
2022/01/28 11:55:25;;;;;;;14.25;2.72;;;10.80;99.90;;;;;;5142172;27;20062;-75
2022/01/28 11:57:55;;;;;;;17.63;3.17;;;10.50;99.90;;;;;;5124220;27;20522;-75
2022/01/28 12:00:30;;;;;;;19.50;2.78;;;10.50;99.90;;;;;;5126069;27;20502;-75
2022/01/28 12:02:56;;;;;;;20.10;3.10;;;10.20;99.90;;;;;;5103234;27;20600;-74
2022/01/28 12:05:29;;;;;;;16.25;3.42;;;10.20;99.90;;;;;;5126603;27;20035;-75
2022/01/28 12:07:56;;;;;;;17.05;3.03;;;9.80;99.90;;;;;;5119920;27;20046;-75
2022/01/28 12:10:23;;;;;;;16.52;3.90;;;9.70;99.90;;;;;;5139758;27;20167;-75
2022/01/28 12:13:05;;;;;;;15.63;2.67;;;9.80;99.90;;;;;;5119287;27;20053;-75
2022/01/28 12:15:59;;;;;;;23.92;3.20;;;10.10;99.90;;;;;;5118798;27;20050;-75
2022/01/28 12:18:26;;;;;;;16.40;2.70;;;11.00;99.90;;;;;;5119263;27;20047;-75
2022/01/28 12:20:53;;;;;;;19.73;2.97;;;11.40;99.90;;;;;;5119228;27;20043;-75
2022/01/28 12:23:18;;;;;;;16.95;2.78;;;11.40;99.90;;;;;;5117141;27;20088;-75
2022/01/28 12:25:44;;;;;;;15.13;2.57;;;11.00;99.90;;;;;;5120306;27;20043;-75
2022/01/28 12:28:21;;;;;;;18.35;2.47;;;10.70;99.90;;;;;;5100304;27;20284;-75
2022/01/28 12:31:18;;;;;;;12.77;2.85;;;11.20;99.90;;;;;;5121651;27;20047;-75
2022/01/28 12:33:46;;;;;;;12.50;2.50;;;12.10;99.90;;;;;;5107629;27;20077;-75
2022/01/28 12:36:15;;;;;;;15.02;2.45;;;12.80;99.90;;;;;;5104798;27;20034;-75
2022/01/28 12:38:55;;;;;;;12.50;2.70;;;13.00;99.90;;;;;;5124244;27;20035;-75
2022/01/28 12:41:23;;;;;;;16.60;3.00;;;12.50;99.90;;;;;;5103669;27;20050;-75
2022/01/28 12:43:49;;;;;;;13.10;2.30;;;11.80;99.90;;;;;;5127712;27;20046;-75
2022/01/28 12:46:15;;;;;;;18.73;3.10;;;11.40;99.90;;;;;;5119859;27;20038;-75
2022/01/28 12:48:45;;;;;;;;;;;11.10;99.90;;;;;;5097069;27;20124;-75
2022/01/28 12:51:10;;;;;;;14.98;2.25;;;11.10;99.90;;;;;;5113863;27;20306;-75
2022/01/28 12:53:48;;;;;;;12.00;2.13;;;11.60;99.90;;;;;;5126217;27;20050;-75
2022/01/28 12:56:17;;;;;;;15.48;3.78;;;12.20;99.90;;;;;;5121501;27;20035;-75
2022/01/28 12:58:49;;;;;;;14.30;2.60;;;12.20;99.90;;;;;;5124901;27;20061;-75
2022/01/28 13:01:17;;;;;;;11.80;2.63;;;12.10;99.90;;;;;;5126198;27;20038;-75
2022/01/28 13:03:57;;;;;;;13.15;2.20;;;11.80;99.90;;;;;;5108252;27;20039;-75
2022/01/28 13:09:09;;;;;;;16.50;2.15;;;10.90;99.90;;;;;;5119868;27;20049;-75
2022/01/28 13:11:46;;;;;;;14.80;2.40;;;10.70;99.90;;;;;;5131490;27;20042;-75
2022/01/28 13:14:14;;;;;;;12.43;2.08;;;10.30;99.90;;;;;;5139587;27;20773;-75
2022/01/28 13:16:42;;;;;;;17.35;2.50;;;10.10;99.90;;;;;;5122677;27;20653;-75
2022/01/28 13:19:09;;;;;;;21.92;3.05;;;9.80;99.90;;;;;;5083595;27;20131;-74
2022/01/28 13:21:35;;;;;;;20.60;3.05;;;9.90;99.90;;;;;;5103493;27;20043;-75
2022/01/28 13:24:17;;;;;;;14.68;2.75;;;9.90;99.90;;;;;;5122215;27;20059;-75
2022/01/28 13:27:02;;;;;;;11.55;2.33;;;9.90;99.90;;;;;;5136815;27;20360;-75
2022/01/28 13:29:47;;;;;;;12.85;2.00;;;9.60;99.90;;;;;;5118664;27;20163;-75
2022/01/28 13:32:15;;;;;;;13.60;2.15;;;9.60;99.90;;;;;;5124115;27;20031;-75
2022/01/28 13:34:50;;;;;;;16.38;2.30;;;9.70;99.90;;;;;;5111865;27;20035;-75
2022/01/28 13:37:31;;;;;;;17.77;2.55;;;9.90;99.90;;;;;;5123009;27;20042;-75
2022/01/28 13:39:58;;;;;;;15.63;2.65;;;9.80;99.90;;;;;;5110176;27;20054;-75
2022/01/28 13:42:24;;;;;;;11.73;2.13;;;9.70;99.90;;;;;;5115725;27;20103;-75
2022/01/28 13:44:51;;;;;;;12.55;2.72;;;9.50;99.90;;;;;;5108037;27;20057;-75
2022/01/28 13:47:17;;;;;;;15.20;2.58;;;9.60;99.90;;;;;;5098016;27;20049;-75
2022/01/28 13:49:44;;;;;;;15.80;2.38;;;9.50;99.90;;;;;;5100975;27;20046;-75
2022/01/28 13:52:12;;;;;;;11.75;1.98;;;9.40;99.90;;;;;;5127273;27;20042;-75
2022/01/28 13:54:38;;;;;;;17.58;2.55;;;9.50;99.90;;;;;;5119333;27;20035;-75
2022/01/28 13:57:06;;;;;;;18.30;2.53;;;9.30;99.90;;;;;;5110747;27;20054;-75
2022/01/28 13:59:33;;;;;;;13.35;2.17;;;9.30;99.90;;;;;;5125561;27;20117;-75
2022/01/28 14:01:59;;;;;;;18.05;2.53;;;9.10;99.90;;;;;;5105578;27;20645;-75
2022/01/28 14:04:35;;;;;;;13.20;2.30;;;8.90;99.90;;;;;;5124662;27;20038;-75
2022/01/28 14:07:19;;;;;;;13.23;2.40;;;8.80;99.90;;;;;;5126523;27;20035;-75
2022/01/28 14:09:58;;;;;;;11.60;2.10;;;8.90;99.90;;;;;;5102501;27;20042;-75
2022/01/28 14:15:11;;;;;;;15.80;2.30;;;8.90;99.90;;;;;;5122326;27;20045;-75
2022/01/28 14:17:38;;;;;;;15.63;2.38;;;8.80;99.90;;;;;;5121246;27;20753;-75
2022/01/28 14:20:05;;;;;;;16.27;2.33;;;8.80;99.90;;;;;;5118788;27;20057;-74
2022/01/28 14:22:31;;;;;;;9.88;1.83;;;8.90;99.90;;;;;;5105492;27;20122;-75
2022/01/28 14:24:57;;;;;;;11.05;1.95;;;9.00;99.90;;;;;;5120430;27;20478;-75
2022/01/28 14:30:02;;;;;;;14.57;2.60;;;9.10;99.90;;;;;;5119331;27;20434;-75
2022/01/28 14:32:28;;;;;;;15.75;2.10;;;9.10;99.90;;;;;;5114299;27;20046;-75
2022/01/28 14:34:56;;;;;;;13.07;2.03;;;9.00;99.90;;;;;;5124445;27;20042;-74
2022/01/28 14:37:24;;;;;;;11.98;2.33;;;8.90;99.90;;;;;;5117674;27;20096;-75
2022/01/28 14:39:51;;;;;;;13.48;2.13;;;8.90;99.90;;;;;;5111170;27;20236;-75
2022/01/28 14:42:17;;;;;;;9.75;2.00;;;8.90;99.90;;;;;;5115601;27;20031;-75
2022/01/28 14:44:48;;;;;;;11.40;1.70;;;8.80;99.90;;;;;;5083997;27;20474;-75
2022/01/28 14:47:15;;;;;;;11.38;2.03;;;8.80;99.90;;;;;;5095444;27;20073;-75